Spooner, Wisconsin
Current Conditions -  °F | °C
As of 2:55 AM on Wednesday 26 Nov 2014 (Local Time) from KUBE Reporting Station
Overcast Overcast  
Wind Chill: 21°   Ceiling: 5500
Heat Index: 21°   Visibility: 10mi
Dew Point: 18°   Wind: 3mph
Humidity: 86%   Direction: 90°E
Pressure: 30.06"   Gusts: NA
Location:  45.82°N, 91.89°W
Report Text: KUBE 260855Z AUTO 09003KT 10SM BKN055 OVC065 M06/M08 A3006 RMK AO2
Loading
Personal Weather Stations






























Interactive Weather Map New forecast layout! Learn more

10-Day Weather Forecast

Advertisements
Track Severe Weather on mobile